createdAt,value
2019-05-12T00:01:11.478Z,9.10
2019-05-12T00:03:13.616Z,9.00
2019-05-12T00:05:18.184Z,9.00
2019-05-12T00:07:19.240Z,9.10
2019-05-12T00:09:20.927Z,9.00
2019-05-12T00:11:22.664Z,9.00
2019-05-12T00:13:24.400Z,8.80
2019-05-12T00:15:27.989Z,8.90
2019-05-12T00:17:29.859Z,8.90
2019-05-12T00:19:31.608Z,8.90
2019-05-12T00:21:33.467Z,9.00
2019-05-12T00:23:54.845Z,9.00
2019-05-12T00:25:58.826Z,9.00
2019-05-12T00:28:00.341Z,9.00
2019-05-12T00:30:03.279Z,9.00
2019-05-12T00:32:04.984Z,9.00
2019-05-12T00:34:07.806Z,9.00
2019-05-12T00:36:09.881Z,8.80
2019-05-12T00:38:11.592Z,8.80
2019-05-12T00:40:13.491Z,8.80
2019-05-12T00:42:15.204Z,8.80
2019-05-12T00:44:18.394Z,8.80
2019-05-12T00:46:20.336Z,8.70
2019-05-12T00:48:22.032Z,8.60
2019-05-12T00:50:23.730Z,8.60
2019-05-12T00:52:28.029Z,8.60
2019-05-12T00:54:29.146Z,8.60
2019-05-12T00:56:30.844Z,8.60
2019-05-12T00:58:32.664Z,8.60
2019-05-12T01:00:34.456Z,8.60
2019-05-12T01:02:37.937Z,8.50
2019-05-12T01:04:40.190Z,8.60
2019-05-12T01:06:42.142Z,8.60
2019-05-12T01:08:43.945Z,8.60
2019-05-12T01:10:47.776Z,8.60
2019-05-12T01:12:49.364Z,8.60
2019-05-12T01:14:51.070Z,8.60
2019-05-12T01:16:52.774Z,8.60
2019-05-12T01:18:54.452Z,8.60
2019-05-12T01:20:58.241Z,8.60
2019-05-12T01:22:59.876Z,8.60
2019-05-12T01:25:01.673Z,8.50
2019-05-12T01:27:03.864Z,8.40
2019-05-12T01:29:05.560Z,8.40
2019-05-12T01:31:09.142Z,8.40
2019-05-12T01:33:10.857Z,8.40
2019-05-12T01:35:12.761Z,8.50
2019-05-12T01:37:23.174Z,8.50
2019-05-12T01:39:24.858Z,8.50
2019-05-12T01:41:28.667Z,8.60
2019-05-12T01:43:30.357Z,8.50
2019-05-12T01:45:32.172Z,8.60
2019-05-12T01:47:33.992Z,8.60
2019-05-12T01:49:38.108Z,8.60
2019-05-12T01:51:39.277Z,8.60
2019-05-12T01:53:41.008Z,8.70
2019-05-12T01:55:42.696Z,8.90
2019-05-12T01:57:44.404Z,8.80
2019-05-12T01:59:48.263Z,8.80
2019-05-12T02:01:49.972Z,8.70
2019-05-12T02:03:51.825Z,8.70
2019-05-12T02:05:57.817Z,8.60
2019-05-12T02:08:00.357Z,8.60
2019-05-12T02:10:02.748Z,8.50
2019-05-12T02:12:04.553Z,8.50
2019-05-12T02:14:09.008Z,8.50
2019-05-12T02:16:10.072Z,8.50
2019-05-12T02:18:11.757Z,8.40
2019-05-12T02:20:17.937Z,8.40
2019-05-12T02:22:19.272Z,8.40
2019-05-12T02:24:26.517Z,8.30
2019-05-12T02:26:24.600Z,8.30
2019-05-12T02:28:28.194Z,8.10
2019-05-12T02:30:30.819Z,8.10
2019-05-12T02:32:44.532Z,8.10
2019-05-12T02:34:36.565Z,8.10
2019-05-12T02:36:38.277Z,8.10
2019-05-12T02:38:39.985Z,8.20
2019-05-12T02:40:44.768Z,8.20
2019-05-12T02:42:46.518Z,8.20
2019-05-12T02:44:48.785Z,8.20
2019-05-12T02:46:50.486Z,8.10
2019-05-12T02:48:54.585Z,8.10
2019-05-12T02:50:56.213Z,8.10
2019-05-12T02:52:58.022Z,8.20
2019-05-12T02:55:01.371Z,8.10
2019-05-12T02:57:04.587Z,8.10
2019-05-12T02:59:07.329Z,8.10
2019-05-12T03:01:09.708Z,8.00
2019-05-12T03:03:14.730Z,7.80
2019-05-12T03:05:16.852Z,7.80
2019-05-12T03:07:20.170Z,7.90
2019-05-12T03:09:24.402Z,7.90
2019-05-12T03:11:27.845Z,7.70
2019-05-12T03:13:29.638Z,7.50
2019-05-12T03:15:31.482Z,7.50
2019-05-12T03:17:35.521Z,7.40
2019-05-12T03:19:37.425Z,7.30
2019-05-12T03:21:39.117Z,7.40
2019-05-12T03:23:40.810Z,7.40
2019-05-12T03:25:45.368Z,7.40
2019-05-12T03:27:46.239Z,7.40
2019-05-12T03:29:48.022Z,7.40
2019-05-12T03:31:49.839Z,7.40
2019-05-12T03:33:58.022Z,7.40
2019-05-12T03:36:00.451Z,7.30
2019-05-12T03:37:58.829Z,7.30
2019-05-12T03:40:00.547Z,7.30
2019-05-12T03:42:05.111Z,7.30
2019-05-12T03:44:06.073Z,7.20
2019-05-12T03:46:07.781Z,7.20
2019-05-12T03:48:09.626Z,7.30
2019-05-12T03:50:14.539Z,7.30
2019-05-12T03:52:15.544Z,7.40
2019-05-12T03:54:17.307Z,7.40
2019-05-12T03:56:19.123Z,7.20
2019-05-12T03:58:20.938Z,7.20
2019-05-12T04:00:24.745Z,7.20
2019-05-12T04:02:26.665Z,7.20
2019-05-12T04:04:28.549Z,7.30
2019-05-12T04:06:30.366Z,7.40
2019-05-12T04:08:34.663Z,7.50
2019-05-12T04:10:36.354Z,7.50
2019-05-12T04:12:38.637Z,7.60
2019-05-12T04:14:40.320Z,7.50
2019-05-12T04:16:44.888Z,7.50
2019-05-12T04:18:45.644Z,7.50
2019-05-12T04:20:47.440Z,7.50
2019-05-12T04:22:49.241Z,7.50
2019-05-12T04:24:50.973Z,7.50
2019-05-12T04:26:55.192Z,7.60
2019-05-12T04:28:56.309Z,7.60
2019-05-12T04:30:57.997Z,7.70
2019-05-12T04:32:59.725Z,7.70
2019-05-12T04:35:04.615Z,7.70
2019-05-12T04:37:05.226Z,7.80
2019-05-12T04:39:07.435Z,7.80
2019-05-12T04:41:09.145Z,7.80
2019-05-12T04:43:14.271Z,7.90
2019-05-12T04:45:15.845Z,7.90
2019-05-12T04:47:18.003Z,7.90
2019-05-12T04:49:19.777Z,8.00
2019-05-12T04:51:21.566Z,8.10
2019-05-12T04:53:25.191Z,8.10
2019-05-12T04:55:26.909Z,8.10
2019-05-12T04:57:28.643Z,8.20
2019-05-12T04:59:30.362Z,8.30
2019-05-12T05:01:34.632Z,8.30
2019-05-12T05:03:35.732Z,8.30
2019-05-12T05:05:37.797Z,8.30
2019-05-12T05:07:39.577Z,8.40
2019-05-12T05:09:44.122Z,8.40
2019-05-12T05:11:45.298Z,8.40
2019-05-12T05:13:47.229Z,8.40
2019-05-12T05:15:48.925Z,8.50
2019-05-12T05:17:50.636Z,8.50
2019-05-12T05:19:53.488Z,8.60
2019-05-12T05:21:55.396Z,8.60
2019-05-12T05:23:57.133Z,8.60
2019-05-12T05:25:59.001Z,8.70
2019-05-12T05:28:00.735Z,8.70
2019-05-12T05:30:03.964Z,8.80
2019-05-12T05:32:06.052Z,8.80
2019-05-12T05:34:07.844Z,8.90
2019-05-12T05:36:19.795Z,8.90
2019-05-12T05:38:20.853Z,8.90
2019-05-12T05:40:28.383Z,9.00
2019-05-12T05:42:28.411Z,9.00
2019-05-12T05:44:36.271Z,9.00
2019-05-12T05:46:33.832Z,9.10
2019-05-12T05:48:35.605Z,9.10
2019-05-12T05:50:37.354Z,9.20
2019-05-12T05:52:39.153Z,9.10
2019-05-12T05:54:40.948Z,9.10
2019-05-12T05:56:56.934Z,9.20
2019-05-12T05:58:51.678Z,9.20
2019-05-12T06:00:54.700Z,9.30
2019-05-12T06:02:54.619Z,9.30
2019-05-12T06:04:56.653Z,9.40
2019-05-12T06:06:58.427Z,9.50
2019-05-12T06:09:00.240Z,9.60
2019-05-12T06:11:04.348Z,9.60
2019-05-12T06:13:05.547Z,9.60
2019-05-12T06:15:09.038Z,9.60
2019-05-12T06:17:10.941Z,9.70
2019-05-12T06:19:14.082Z,9.90
2019-05-12T06:21:16.408Z,10.00
2019-05-12T06:23:18.142Z,10.00
2019-05-12T06:25:19.949Z,10.10
2019-05-12T06:27:21.764Z,10.00
2019-05-12T06:29:25.363Z,10.00
2019-05-12T06:31:29.831Z,10.00
2019-05-12T06:33:31.891Z,10.10
2019-05-12T06:35:42.276Z,10.30
2019-05-12T06:37:41.011Z,10.30
2019-05-12T06:39:43.555Z,10.20
2019-05-12T06:41:47.697Z,10.20
2019-05-12T06:43:49.484Z,10.30
2019-05-12T06:45:51.176Z,10.30
2019-05-12T06:47:56.133Z,10.40
2019-05-12T06:49:58.216Z,10.50
2019-05-12T06:52:03.135Z,10.40
2019-05-12T06:54:10.391Z,10.50
2019-05-12T06:56:09.501Z,10.60
2019-05-12T06:58:13.804Z,10.60
2019-05-12T07:00:15.464Z,10.60
2019-05-12T07:02:17.165Z,10.70
2019-05-12T07:04:21.273Z,10.90
2019-05-12T07:06:24.788Z,11.10
2019-05-12T07:08:31.719Z,11.20
2019-05-12T07:10:43.544Z,11.30
2019-05-12T07:12:43.668Z,11.30
2019-05-12T07:14:37.280Z,11.40
2019-05-12T07:16:39.001Z,11.50
2019-05-12T07:18:43.749Z,11.60
2019-05-12T07:20:45.624Z,11.60
2019-05-12T07:22:48.524Z,11.50
2019-05-12T07:24:52.781Z,11.70
2019-05-12T07:27:02.734Z,11.80
2019-05-12T07:28:57.980Z,11.90
2019-05-12T07:31:00.009Z,12.00
2019-05-12T07:33:04.271Z,11.90
2019-05-12T07:35:05.965Z,11.80
2019-05-12T07:37:08.793Z,11.80
2019-05-12T07:39:15.559Z,11.90
2019-05-12T07:41:23.674Z,12.00
2019-05-12T07:43:28.037Z,12.10
2019-05-12T07:45:29.846Z,12.10
2019-05-12T07:47:33.152Z,12.20
2019-05-12T07:49:38.546Z,12.40
2019-05-12T07:51:40.668Z,12.50
2019-05-12T07:53:46.903Z,12.60
2019-05-12T07:55:49.912Z,12.50
2019-05-12T07:57:58.399Z,12.50
2019-05-12T07:59:55.780Z,12.40
2019-05-12T08:01:57.588Z,12.50
2019-05-12T08:04:01.136Z,12.70
2019-05-12T08:06:04.617Z,12.80
2019-05-12T08:08:10.641Z,12.90
2019-05-12T08:10:17.735Z,12.80
2019-05-12T08:12:19.145Z,12.90
2019-05-12T08:14:25.798Z,12.90
2019-05-12T08:16:25.706Z,12.80
2019-05-12T08:18:25.085Z,12.90
2019-05-12T08:20:26.932Z,12.90
2019-05-12T08:22:29.481Z,12.90
2019-05-12T08:24:36.944Z,13.00
2019-05-12T08:26:35.244Z,13.10
2019-05-12T08:28:40.352Z,13.30
2019-05-12T08:30:47.464Z,13.30
2019-05-12T08:32:44.542Z,13.50
2019-05-12T08:34:46.297Z,13.50
2019-05-12T08:36:53.216Z,13.70
2019-05-12T08:38:53.593Z,13.90
2019-05-12T08:40:55.694Z,14.10
2019-05-12T08:42:59.498Z,14.20
2019-05-12T08:45:03.871Z,14.40
2019-05-12T08:47:04.989Z,14.30
2019-05-12T08:49:06.794Z,14.00
2019-05-12T08:51:14.021Z,13.90
2019-05-12T08:53:20.564Z,13.90
2019-05-12T08:55:16.893Z,14.00
2019-05-12T08:57:18.964Z,13.90
2019-05-12T08:59:24.994Z,13.80
2019-05-12T09:01:28.675Z,13.90
2019-05-12T09:03:30.431Z,14.20
2019-05-12T09:05:34.497Z,14.40
2019-05-12T09:07:39.832Z,14.50
2019-05-12T09:09:40.103Z,14.50
2019-05-12T09:11:43.907Z,14.60
2019-05-12T09:13:45.609Z,14.80
2019-05-12T09:15:47.325Z,14.80
2019-05-12T09:17:54.630Z,14.80
2019-05-12T09:19:55.032Z,14.80
2019-05-12T09:21:56.452Z,14.60
2019-05-12T09:23:58.200Z,14.80
2019-05-12T09:26:00.309Z,15.00
2019-05-12T09:28:03.840Z,15.30
2019-05-12T09:30:09.689Z,15.50
2019-05-12T09:32:10.205Z,15.50
2019-05-12T09:34:16.168Z,15.60
2019-05-12T09:36:19.885Z,15.60
2019-05-12T09:38:23.878Z,15.80
2019-05-12T09:40:24.704Z,16.10
2019-05-12T09:42:29.936Z,16.00
2019-05-12T09:44:30.687Z,16.00
2019-05-12T09:46:34.319Z,16.00
2019-05-12T09:48:39.052Z,16.20
2019-05-12T09:50:44.130Z,16.20
2019-05-12T09:52:44.292Z,16.10
2019-05-12T09:54:45.996Z,16.10
2019-05-12T09:56:49.913Z,16.20
2019-05-12T09:59:00.858Z,16.50
2019-05-12T10:00:54.927Z,16.60
2019-05-12T10:02:59.545Z,16.60
2019-05-12T10:05:00.865Z,16.80
2019-05-12T10:07:03.845Z,17.10
2019-05-12T10:09:08.844Z,17.10
2019-05-12T10:11:10.444Z,17.10
2019-05-12T10:13:13.819Z,17.20
2019-05-12T10:15:18.589Z,17.30
2019-05-12T10:17:20.438Z,16.90
2019-05-12T10:19:23.597Z,16.90
2019-05-12T10:21:27.933Z,16.70
2019-05-12T10:23:29.724Z,16.60
2019-05-12T10:25:33.679Z,16.60
2019-05-12T10:27:35.519Z,16.70
2019-05-12T10:29:37.260Z,16.40
2019-05-12T10:31:39.473Z,16.40
2019-05-12T10:33:43.158Z,16.50
2019-05-12T10:35:44.873Z,16.80
2019-05-12T10:37:47.379Z,17.30
2019-05-12T10:39:49.185Z,17.60
2019-05-12T10:41:50.893Z,17.90
2019-05-12T10:43:56.020Z,17.50
2019-05-12T10:45:56.241Z,17.50
2019-05-12T10:47:58.056Z,17.50
2019-05-12T10:49:59.873Z,17.50
2019-05-12T10:52:03.929Z,17.80
2019-05-12T10:54:12.214Z,18.20
2019-05-12T10:56:09.300Z,18.10
2019-05-12T10:58:11.014Z,18.20
2019-05-12T11:00:14.456Z,18.30
2019-05-12T11:02:20.329Z,18.60
2019-05-12T11:04:23.367Z,18.90
2019-05-12T11:06:24.374Z,18.70
2019-05-12T11:08:26.342Z,18.80
2019-05-12T11:10:28.145Z,19.40
2019-05-12T11:12:30.294Z,19.40
2019-05-12T11:14:34.165Z,19.40
2019-05-12T11:16:35.980Z,18.70
2019-05-12T11:18:37.689Z,18.20
2019-05-12T11:20:39.655Z,18.00
2019-05-12T11:22:41.357Z,18.30
2019-05-12T11:24:44.422Z,18.50
2019-05-12T11:26:46.460Z,18.70
2019-05-12T11:28:48.153Z,19.20
2019-05-12T11:30:49.852Z,19.20
2019-05-12T11:32:53.779Z,19.70
2019-05-12T11:34:55.112Z,20.10
2019-05-12T11:36:56.813Z,20.60
2019-05-12T11:38:58.489Z,20.50
2019-05-12T11:41:00.208Z,20.50
2019-05-12T11:43:04.082Z,20.50
2019-05-12T11:45:06.168Z,20.20
2019-05-12T11:47:07.908Z,20.00
2019-05-12T11:49:09.836Z,19.90
2019-05-12T11:51:11.523Z,20.00
2019-05-12T11:53:13.828Z,20.20
2019-05-12T11:55:15.737Z,20.50
2019-05-12T11:57:20.189Z,20.70
2019-05-12T11:59:21.072Z,20.80
2019-05-12T12:01:24.925Z,20.30
2019-05-12T12:03:26.757Z,20.50
2019-05-12T12:05:28.445Z,20.90
2019-05-12T12:07:30.156Z,21.00
2019-05-12T12:09:31.864Z,20.50
2019-05-12T12:11:34.258Z,20.10
2019-05-12T12:13:36.150Z,20.20
2019-05-12T12:15:38.019Z,20.20
2019-05-12T12:17:39.700Z,20.50
2019-05-12T12:19:46.723Z,21.00
2019-05-12T12:21:48.033Z,21.40
2019-05-12T12:23:50.235Z,21.70
2019-05-12T12:25:53.514Z,21.80
2019-05-12T12:27:55.564Z,21.40
2019-05-12T12:29:57.240Z,21.20
2019-05-12T12:31:59.032Z,21.30
2019-05-12T12:34:00.760Z,21.60
2019-05-12T12:36:04.101Z,21.90
2019-05-12T12:38:06.036Z,22.10
2019-05-12T12:40:08.286Z,22.20
2019-05-12T12:42:09.965Z,22.30
2019-05-12T12:44:13.529Z,22.20
2019-05-12T12:46:24.251Z,21.90
2019-05-12T12:48:29.792Z,22.00
2019-05-12T12:50:30.697Z,22.40
2019-05-12T12:52:33.586Z,22.70
2019-05-12T12:54:35.486Z,22.90
2019-05-12T12:56:37.160Z,22.70
2019-05-12T12:58:38.848Z,22.70
2019-05-12T13:00:47.279Z,22.40
2019-05-12T13:02:48.968Z,22.80
2019-05-12T13:04:50.380Z,23.20
2019-05-12T13:06:54.230Z,23.50
2019-05-12T13:08:55.466Z,23.40
2019-05-12T13:10:57.236Z,23.90
2019-05-12T13:13:00.959Z,24.40
2019-05-12T13:15:03.848Z,24.40
2019-05-12T13:17:05.788Z,24.30
2019-05-12T13:19:12.430Z,24.70
2019-05-12T13:21:13.704Z,24.60
2019-05-12T13:23:15.144Z,24.80
2019-05-12T13:25:16.950Z,24.60
2019-05-12T13:27:19.067Z,25.00
2019-05-12T13:29:26.365Z,24.90
2019-05-12T13:31:26.009Z,24.80
2019-05-12T13:33:27.692Z,24.70
2019-05-12T13:35:29.464Z,24.90
2019-05-12T13:37:31.182Z,25.30
2019-05-12T13:39:33.574Z,24.70
2019-05-12T13:41:35.473Z,24.60
2019-05-12T13:43:37.217Z,25.00
2019-05-12T13:45:39.004Z,24.70
2019-05-12T13:47:40.679Z,24.30
2019-05-12T13:49:46.816Z,24.30
2019-05-12T13:51:48.277Z,24.10
2019-05-12T13:53:50.359Z,23.20
2019-05-12T13:55:54.266Z,22.80
2019-05-12T13:57:57.628Z,23.00
2019-05-12T14:00:06.853Z,23.40
2019-05-12T14:02:03.580Z,24.50
2019-05-12T14:04:05.497Z,24.70
2019-05-12T14:06:07.237Z,25.00
2019-05-12T14:08:08.933Z,24.50
2019-05-12T14:10:10.857Z,23.70
2019-05-12T14:12:13.559Z,23.40
2019-05-12T14:21:04.168Z,23.80
2019-05-12T14:28:39.425Z,24.10
2019-05-12T14:30:47.411Z,23.60
2019-05-12T14:32:49.367Z,23.00
2019-05-12T14:34:51.019Z,22.70
2019-05-12T14:37:04.860Z,22.60
2019-05-12T14:39:00.157Z,22.60
2019-05-12T14:41:01.460Z,22.50
2019-05-12T14:43:04.887Z,22.40
2019-05-12T14:45:07.194Z,22.00
2019-05-12T14:47:08.982Z,21.70
2019-05-12T14:49:10.994Z,21.60
2019-05-12T14:51:14.076Z,21.40
2019-05-12T14:53:16.174Z,21.30
2019-05-12T14:55:18.393Z,21.00
2019-05-12T14:57:20.305Z,20.30
2019-05-12T14:59:24.342Z,19.70
2019-05-12T15:01:38.478Z,19.10
2019-05-12T15:03:30.296Z,18.70
2019-05-12T15:05:32.338Z,18.60
2019-05-12T15:07:44.586Z,18.50
2019-05-12T15:09:40.649Z,18.20
2019-05-12T15:11:43.787Z,18.00
2019-05-12T15:13:45.936Z,18.10
2019-05-12T15:15:50.062Z,18.00
2019-05-12T15:17:56.655Z,17.90
2019-05-12T15:20:00.294Z,17.80
2019-05-12T15:22:06.637Z,17.90
2019-05-12T15:24:09.278Z,17.90
2019-05-12T15:26:09.657Z,18.00
2019-05-12T15:30:43.738Z,17.90
2019-05-12T15:32:45.770Z,17.70
2019-05-12T15:34:49.551Z,17.60
2019-05-12T15:36:55.465Z,17.50
2019-05-12T15:38:58.719Z,17.20
2019-05-12T15:40:58.950Z,17.00
2019-05-12T15:43:05.184Z,16.90
2019-05-12T15:45:06.640Z,16.90
2019-05-12T15:56:33.083Z,16.50
2019-05-12T15:58:34.950Z,16.30
2019-05-12T16:00:38.443Z,16.20
2019-05-12T16:02:40.341Z,16.10
2019-05-12T16:04:43.110Z,16.00
2019-05-12T16:06:53.451Z,15.90
2019-05-12T16:08:53.470Z,16.00
2019-05-12T16:10:56.199Z,16.00
2019-05-12T16:12:58.149Z,15.90
2019-05-12T16:14:59.915Z,15.90
2019-05-12T16:17:04.305Z,15.90
2019-05-12T16:19:05.622Z,15.80
2019-05-12T16:21:09.448Z,15.70
2019-05-12T16:23:17.235Z,15.70
2019-05-12T16:25:15.606Z,15.70
2019-05-12T16:27:17.383Z,15.70
2019-05-12T16:29:19.353Z,15.70
2019-05-12T16:31:23.120Z,15.60
2019-05-12T16:33:24.963Z,15.60
2019-05-12T16:35:31.441Z,15.60
2019-05-12T16:37:34.959Z,15.60
2019-05-12T16:39:37.035Z,15.50
2019-05-12T16:41:37.767Z,15.30
2019-05-12T16:43:39.501Z,15.40
2019-05-12T16:45:41.205Z,15.40
2019-05-12T16:47:44.747Z,15.20
2019-05-12T16:49:46.921Z,15.20
2019-05-12T16:51:48.969Z,15.20
2019-05-12T16:53:50.953Z,15.10
2019-05-12T16:55:53.307Z,15.10
2019-05-12T16:57:56.177Z,15.10
2019-05-12T17:00:03.537Z,15.00
2019-05-12T17:02:05.506Z,15.10
2019-05-12T17:04:05.474Z,15.10
2019-05-12T17:06:07.468Z,15.00
2019-05-12T17:08:09.176Z,14.90
2019-05-12T17:10:14.641Z,14.80
2019-05-12T17:12:14.990Z,14.80
2019-05-12T17:14:16.919Z,14.70
2019-05-12T17:16:18.721Z,14.80
2019-05-12T17:18:20.457Z,14.70
2019-05-12T17:20:22.184Z,14.60
2019-05-12T17:22:24.038Z,14.40
2019-05-12T17:24:25.805Z,14.40
2019-05-12T17:26:27.513Z,14.40
2019-05-12T17:28:29.252Z,14.30
2019-05-12T17:30:31.058Z,14.20
2019-05-12T17:32:32.814Z,14.30
2019-05-12T17:34:34.593Z,14.30
2019-05-12T17:36:36.363Z,14.30
2019-05-12T17:38:38.105Z,14.30
2019-05-12T17:40:39.992Z,14.30
2019-05-12T17:42:44.306Z,14.30
2019-05-12T17:44:45.333Z,14.20
2019-05-12T17:46:47.137Z,14.20
2019-05-12T17:48:53.274Z,14.10
2019-05-12T17:50:55.056Z,14.00
2019-05-12T17:53:00.439Z,14.00
2019-05-12T17:55:08.885Z,13.90
2019-05-12T17:57:04.156Z,13.80
2019-05-12T17:59:05.898Z,13.90
2019-05-12T18:01:07.778Z,13.90
2019-05-12T18:03:18.495Z,13.80
2019-05-12T18:05:15.412Z,13.70
2019-05-12T18:07:19.239Z,13.60
2019-05-12T18:09:20.973Z,13.40
2019-05-12T18:11:23.883Z,13.40
2019-05-12T18:13:28.184Z,13.30
2019-05-12T18:15:33.235Z,13.20
2019-05-12T18:17:33.919Z,13.30
2019-05-12T18:19:35.746Z,13.20
2019-05-12T18:21:37.486Z,13.20
2019-05-12T18:23:39.186Z,13.20
2019-05-12T18:25:40.901Z,13.20
2019-05-12T18:27:48.924Z,13.10
2019-05-12T18:29:46.273Z,13.10
2019-05-12T18:31:47.980Z,13.10
2019-05-12T18:33:53.655Z,13.00
2019-05-12T18:35:54.481Z,12.90
2019-05-12T18:37:56.481Z,12.80
2019-05-12T18:39:58.330Z,12.90
2019-05-12T18:42:00.050Z,12.90
2019-05-12T18:44:04.281Z,12.90
2019-05-12T18:46:09.055Z,12.80
2019-05-12T18:48:17.884Z,12.90
2019-05-12T18:50:14.401Z,12.80
2019-05-12T18:52:16.276Z,12.70
2019-05-12T18:54:18.075Z,12.60
2019-05-12T18:56:21.724Z,12.50
2019-05-12T18:58:30.840Z,12.40
2019-05-12T19:00:27.453Z,12.50
2019-05-12T19:02:29.351Z,12.50
2019-05-12T19:04:33.934Z,12.40
2019-05-12T19:06:34.994Z,12.40
2019-05-12T19:08:36.911Z,12.20
2019-05-12T19:10:44.226Z,12.20
2019-05-12T19:12:43.903Z,12.10
2019-05-12T19:14:51.918Z,12.10
2019-05-12T19:16:59.681Z,12.10
2019-05-12T19:19:03.801Z,12.20
2019-05-12T19:21:10.212Z,12.10
2019-05-12T19:23:11.081Z,12.00
2019-05-12T19:25:24.004Z,12.00
2019-05-12T19:27:23.929Z,12.00
2019-05-12T19:29:29.732Z,11.90
2019-05-12T19:31:33.367Z,11.70
2019-05-12T19:33:35.784Z,11.80
2019-05-12T19:35:38.159Z,11.80
2019-05-12T19:37:42.409Z,11.70
2019-05-12T19:39:44.613Z,11.60
2019-05-12T19:41:48.140Z,11.50
2019-05-12T19:43:53.397Z,11.50
2019-05-12T19:46:02.902Z,11.50
2019-05-12T19:48:00.104Z,11.50
2019-05-12T19:50:08.860Z,11.50
2019-05-12T19:52:05.709Z,11.50
2019-05-12T19:54:07.634Z,11.40
2019-05-12T19:56:09.502Z,11.40
2019-05-12T19:58:12.645Z,11.30
2019-05-12T20:00:15.127Z,11.30
2019-05-12T20:02:16.855Z,11.20
2019-05-12T20:04:32.670Z,11.20
2019-05-12T20:06:24.350Z,11.20
2019-05-12T20:08:26.026Z,11.20
2019-05-12T20:10:27.763Z,11.10
2019-05-12T20:12:29.509Z,11.10
2019-05-12T20:14:31.248Z,11.00
2019-05-12T20:16:34.615Z,10.90
2019-05-12T20:18:42.631Z,10.90
2019-05-12T20:20:43.968Z,10.90
2019-05-12T20:22:44.184Z,10.90
2019-05-12T20:24:46.094Z,10.90
2019-05-12T20:26:47.797Z,10.90
2019-05-12T20:28:50.702Z,10.90
2019-05-12T20:31:01.005Z,10.90
2019-05-12T20:32:56.821Z,10.80
2019-05-12T20:34:58.637Z,10.80
2019-05-12T20:37:07.571Z,10.70
2019-05-12T20:39:09.917Z,10.70
2019-05-12T20:41:10.913Z,10.70
2019-05-12T20:43:14.721Z,10.70
2019-05-12T20:45:17.087Z,10.60
2019-05-12T20:47:18.801Z,10.60
2019-05-12T20:49:20.590Z,10.60
2019-05-12T20:51:24.386Z,10.60
2019-05-12T20:53:31.776Z,10.60
2019-05-12T20:55:30.119Z,10.60
2019-05-12T20:57:34.563Z,10.50
2019-05-12T20:59:36.733Z,10.50
2019-05-12T21:01:38.451Z,10.50
2019-05-12T21:03:46.403Z,10.40
2019-05-12T21:05:43.798Z,10.40
2019-05-12T21:07:45.611Z,10.30
2019-05-12T21:09:47.311Z,10.30
2019-05-12T21:11:49.115Z,10.40
2019-05-12T21:13:50.846Z,10.30
2019-05-12T21:15:53.974Z,10.30
2019-05-12T21:18:02.467Z,10.30
2019-05-12T21:19:59.630Z,10.30
2019-05-12T21:22:03.308Z,10.20
2019-05-12T21:24:05.215Z,10.30
2019-05-12T21:26:07.492Z,10.30
2019-05-12T21:28:09.257Z,10.30
2019-05-12T21:30:14.272Z,10.20
2019-05-12T21:32:16.997Z,10.20
2019-05-12T21:34:21.075Z,10.10
2019-05-12T21:36:24.981Z,10.10
2019-05-12T21:38:29.626Z,10.10
2019-05-12T21:40:30.666Z,10.10
2019-05-12T21:42:33.848Z,10.10
2019-05-12T21:44:35.860Z,10.10
2019-05-12T21:46:38.346Z,10.00
2019-05-12T21:48:40.354Z,9.90
2019-05-12T21:50:44.251Z,9.80
2019-05-12T21:52:45.793Z,9.90
2019-05-12T21:54:47.633Z,9.90
2019-05-12T21:56:49.563Z,9.80
2019-05-12T21:58:56.513Z,9.70
2019-05-12T22:01:03.903Z,9.70
2019-05-12T22:03:08.266Z,9.60
2019-05-12T22:05:07.314Z,9.50
2019-05-12T22:07:09.286Z,9.50
2019-05-12T22:09:11.202Z,9.50
2019-05-12T22:11:13.285Z,9.60
2019-05-12T22:13:17.941Z,9.60
2019-05-12T22:15:21.357Z,9.60
2019-05-12T22:17:23.946Z,9.50
2019-05-12T22:19:30.873Z,9.60
2019-05-12T22:21:29.401Z,9.70
2019-05-12T22:23:33.157Z,9.70
2019-05-12T22:25:34.917Z,9.60
2019-05-12T22:27:36.725Z,9.60
2019-05-12T22:29:38.777Z,9.50
2019-05-12T22:31:44.965Z,9.50
2019-05-12T22:33:51.640Z,9.40
2019-05-12T22:36:00.719Z,9.40
2019-05-12T22:37:53.582Z,9.30
2019-05-12T22:39:55.074Z,9.30
2019-05-12T22:41:56.935Z,9.30
2019-05-12T22:43:58.651Z,9.30
2019-05-12T22:46:00.380Z,9.20
2019-05-12T22:48:04.149Z,9.20
2019-05-12T22:50:05.916Z,9.20
2019-05-12T22:52:07.725Z,9.20
2019-05-12T22:54:10.709Z,9.10
2019-05-12T22:56:17.816Z,9.10
2019-05-12T22:58:20.632Z,9.10
2019-05-12T23:00:21.648Z,9.20
2019-05-12T23:02:29.929Z,9.10
2019-05-12T23:04:35.343Z,9.10
2019-05-12T23:06:35.890Z,9.10
2019-05-12T23:08:38.690Z,9.10
2019-05-12T23:10:41.523Z,9.00
2019-05-12T23:12:44.107Z,8.80
2019-05-12T23:14:45.881Z,8.70
2019-05-12T23:16:47.617Z,8.70
2019-05-12T23:18:49.325Z,8.70
2019-05-12T23:20:51.069Z,8.80
2019-05-12T23:22:54.421Z,8.70
2019-05-12T23:24:56.389Z,8.60
2019-05-12T23:26:58.188Z,8.70
2019-05-12T23:28:59.912Z,8.70
2019-05-12T23:31:04.123Z,8.80
2019-05-12T23:33:05.427Z,8.70
2019-05-12T23:35:07.430Z,8.60
2019-05-12T23:37:09.252Z,8.70
2019-05-12T23:39:10.958Z,8.70
2019-05-12T23:41:13.548Z,8.70
2019-05-12T23:43:15.709Z,8.70
2019-05-12T23:45:17.522Z,8.60
2019-05-12T23:47:19.226Z,8.50
2019-05-12T23:49:20.958Z,8.60
2019-05-12T23:51:23.595Z,8.60
2019-05-12T23:53:25.421Z,8.60
2019-05-12T23:55:27.138Z,8.60
2019-05-12T23:57:28.863Z,8.60
2019-05-12T23:59:30.579Z,8.50
